Time;durP1;ratioP1;P1;durP2;ratioP2;P2;SDS_P1;SDS_P2;PMS_P1;PMS_P2;Temp;Humidity;BMP_temperature;BMP_pressure;BME280_temperature;BME280_humidity;BME280_pressure;Samples;Min_cycle;Max_cycle;Signal;HPM_P1;HPM_P2
2023/05/19 00:01:24;;;;;;;5.60;3.60;;;12.10;92.20;;;;;;6186244;23;20001;-84
2023/05/19 00:03:52;;;;;;;8.40;3.50;;;12.10;92.40;;;;;;6186189;23;20005;-83
2023/05/19 00:06:23;;;;;;;6.95;3.53;;;12.00;92.40;;;;;;6159803;23;20005;-84
2023/05/19 00:08:55;;;;;;;6.63;3.47;;;12.10;92.50;;;;;;6136063;23;20009;-83
2023/05/19 00:11:21;;;;;;;7.05;3.58;;;12.10;92.50;;;;;;6160220;23;20031;-83
2023/05/19 00:13:48;;;;;;;7.63;3.25;;;12.00;92.50;;;;;;6135757;23;20012;-83
2023/05/19 00:16:14;;;;;;;9.07;3.65;;;12.10;92.60;;;;;;6135262;23;20008;-83
2023/05/19 00:18:40;;;;;;;5.72;3.20;;;12.10;92.60;;;;;;6160143;23;20009;-83
2023/05/19 00:21:06;;;;;;;10.45;3.47;;;12.10;92.70;;;;;;6135865;23;20092;-83
2023/05/19 00:23:32;;;;;;;6.43;3.00;;;12.10;92.70;;;;;;6160027;23;20368;-84
2023/05/19 00:25:57;;;;;;;8.60;3.78;;;12.00;92.90;;;;;;6135415;23;20063;-83
2023/05/19 00:28:23;;;;;;;7.43;3.50;;;12.10;92.90;;;;;;6135218;23;20438;-83
2023/05/19 00:30:50;;;;;;;6.15;3.17;;;12.10;93.00;;;;;;6135788;23;20009;-83
2023/05/19 00:33:16;;;;;;;7.60;3.10;;;12.00;93.00;;;;;;6184611;23;20001;-83
2023/05/19 00:35:42;;;;;;;7.85;3.47;;;12.10;93.10;;;;;;6160310;23;20300;-83
2023/05/19 00:38:07;;;;;;;4.70;3.15;;;12.10;93.10;;;;;;6159683;23;20095;-83
2023/05/19 00:40:37;;;;;;;8.13;3.15;;;12.00;93.10;;;;;;6135264;23;20420;-83
2023/05/19 00:43:04;;;;;;;5.68;2.88;;;12.10;93.20;;;;;;6186402;23;20008;-84
2023/05/19 00:45:30;;;;;;;7.45;3.60;;;12.10;93.20;;;;;;6159922;23;20062;-84
2023/05/19 00:47:56;;;;;;;8.65;3.70;;;12.00;93.20;;;;;;6135490;23;20079;-84
2023/05/19 00:50:23;;;;;;;6.78;3.17;;;12.00;93.30;;;;;;6186250;23;20001;-83
2023/05/19 00:52:50;;;;;;;5.75;3.50;;;12.00;93.40;;;;;;6186586;23;20009;-83
2023/05/19 00:55:16;;;;;;;8.00;3.65;;;12.00;93.50;;;;;;6135520;23;20009;-83
2023/05/19 00:57:42;;;;;;;8.07;4.15;;;12.00;93.60;;;;;;6187117;23;20009;-83
2023/05/19 01:00:10;;;;;;;6.57;2.92;;;12.00;93.60;;;;;;6188420;23;20016;-83
2023/05/19 01:02:38;;;;;;;5.97;2.72;;;12.00;93.70;;;;;;6188514;23;20024;-83
2023/05/19 01:05:05;;;;;;;5.68;2.97;;;11.90;93.70;;;;;;6191481;23;20112;-83
2023/05/19 01:07:31;;;;;;;7.30;3.53;;;11.90;93.80;;;;;;6210113;23;20001;-82
2023/05/19 01:09:57;;;;;;;6.32;3.35;;;11.90;93.90;;;;;;6213327;23;20008;-83
2023/05/19 01:12:24;;;;;;;7.93;3.67;;;11.90;94.00;;;;;;6168798;23;20027;-83
2023/05/19 01:14:50;;;;;;;7.38;3.42;;;11.90;94.10;;;;;;6140181;23;20013;-83
2023/05/19 01:17:26;;;;;;;7.53;3.70;;;11.90;94.20;;;;;;6139387;23;20485;-83
2023/05/19 01:20:24;;;;;;;7.57;3.60;;;11.80;94.30;;;;;;6163401;23;20005;-83
2023/05/19 01:22:53;;;;;;;5.97;3.25;;;11.80;94.40;;;;;;6187950;23;20009;-83
2023/05/19 01:25:43;;;;;;;7.65;4.28;;;11.80;94.40;;;;;;6189366;23;20001;-83
2023/05/19 01:28:30;;;;;;;6.88;3.72;;;11.70;94.50;;;;;;6163113;23;20522;-83
2023/05/19 01:30:58;;;;;;;6.18;3.30;;;11.80;94.60;;;;;;6162970;23;20013;-83
2023/05/19 01:33:25;;;;;;;10.45;3.95;;;11.70;94.50;;;;;;6188799;23;20044;-83
2023/05/19 01:35:53;;;;;;;7.03;4.03;;;11.70;94.70;;;;;;6187965;23;20428;-83
2023/05/19 01:38:20;;;;;;;8.75;4.20;;;11.70;94.70;;;;;;6189123;23;20013;-83
2023/05/19 01:40:46;;;;;;;5.68;3.97;;;11.60;94.90;;;;;;6162677;23;20064;-83
2023/05/19 01:43:19;;;;;;;7.07;4.03;;;11.60;95.00;;;;;;6163059;23;20081;-83
2023/05/19 01:45:45;;;;;;;7.20;3.92;;;11.60;95.10;;;;;;6189125;23;19997;-83
2023/05/19 01:48:12;;;;;;;6.53;3.60;;;11.60;95.10;;;;;;6187901;23;20005;-83
2023/05/19 01:50:38;;;;;;;7.60;4.00;;;11.60;95.10;;;;;;6138212;23;20040;-83
2023/05/19 01:53:04;;;;;;;8.00;4.10;;;11.60;95.20;;;;;;6137838;23;20009;-83
2023/05/19 01:55:30;;;;;;;6.85;4.00;;;11.60;95.30;;;;;;6162550;23;20020;-83
2023/05/19 01:58:25;;;;;;;6.88;3.95;;;11.50;95.40;;;;;;6189328;23;20075;-83
2023/05/19 02:01:09;;;;;;;4.90;3.53;;;11.60;95.60;;;;;;6172858;23;20005;-83
2023/05/19 02:04:03;;;;;;;6.85;3.70;;;11.50;95.60;;;;;;6189134;23;20001;-83
2023/05/19 02:06:47;;;;;;;5.07;3.42;;;11.50;95.70;;;;;;6162919;23;20080;-83
2023/05/19 02:09:29;;;;;;;9.38;4.68;;;11.50;95.70;;;;;;6162540;23;20001;-83
2023/05/19 02:11:59;;;;;;;6.95;4.20;;;11.40;96.00;;;;;;6187884;23;20476;-83
2023/05/19 02:14:57;;;;;;;6.38;3.72;;;11.40;96.00;;;;;;6162693;23;20012;-83
2023/05/19 02:17:28;;;;;;;11.35;4.38;;;11.40;96.00;;;;;;6189054;23;20028;-83
2023/05/19 02:19:54;;;;;;;7.63;3.97;;;11.40;96.10;;;;;;6163046;23;20001;-83
2023/05/19 02:22:20;;;;;;;8.45;3.97;;;11.30;96.20;;;;;;6163478;23;20005;-83
2023/05/19 02:24:46;;;;;;;9.00;4.03;;;11.30;96.20;;;;;;6136756;23;20088;-83
2023/05/19 02:27:12;;;;;;;9.20;4.13;;;11.30;96.30;;;;;;6162055;23;20001;-83
2023/05/19 02:29:37;;;;;;;9.38;4.10;;;11.30;96.50;;;;;;6137123;23;20012;-84
2023/05/19 02:32:04;;;;;;;5.60;3.60;;;11.30;96.50;;;;;;6161945;23;20009;-83
2023/05/19 02:34:30;;;;;;;7.68;4.25;;;11.20;96.50;;;;;;6189610;23;20005;-83
2023/05/19 02:36:56;;;;;;;6.68;3.85;;;11.20;96.60;;;;;;6162607;23;20005;-83
2023/05/19 02:39:22;;;;;;;7.13;3.88;;;11.20;96.60;;;;;;6185825;23;20001;-83
2023/05/19 02:41:47;;;;;;;9.30;3.92;;;11.20;96.60;;;;;;6188686;23;20024;-83
2023/05/19 02:44:13;;;;;;;8.45;3.90;;;11.20;96.70;;;;;;6164235;23;19989;-83
2023/05/19 02:46:39;;;;;;;9.63;4.38;;;11.20;96.70;;;;;;6213736;23;20436;-82
2023/05/19 02:49:04;;;;;;;9.75;3.90;;;11.20;96.70;;;;;;6166535;23;20009;-83
2023/05/19 02:51:30;;;;;;;9.93;4.82;;;11.20;96.70;;;;;;6161744;23;20013;-83
2023/05/19 02:53:56;;;;;;;6.88;4.00;;;11.20;96.80;;;;;;6136637;23;20415;-83
2023/05/19 02:56:21;;;;;;;7.35;4.40;;;11.10;96.80;;;;;;6136695;23;20005;-83
2023/05/19 02:58:47;;;;;;;8.45;4.13;;;11.20;96.90;;;;;;6160777;23;20335;-83
2023/05/19 03:01:13;;;;;;;7.88;4.53;;;11.20;96.90;;;;;;6136321;23;20428;-83
2023/05/19 03:03:38;;;;;;;7.50;3.88;;;11.20;97.00;;;;;;6160768;23;20088;-83
2023/05/19 03:06:07;;;;;;;9.05;4.30;;;11.10;97.00;;;;;;6136328;23;20498;-83
2023/05/19 03:08:34;;;;;;;7.90;4.63;;;11.10;97.10;;;;;;6136613;23;20029;-83
2023/05/19 03:10:59;;;;;;;8.70;4.43;;;11.10;97.10;;;;;;6160987;23;20092;-83
2023/05/19 03:13:25;;;;;;;8.15;4.45;;;11.10;97.20;;;;;;6160878;23;20025;-83
2023/05/19 03:15:51;;;;;;;7.13;4.40;;;11.00;97.30;;;;;;6160559;23;20543;-83
2023/05/19 03:18:17;;;;;;;7.30;4.30;;;11.00;97.30;;;;;;6160921;23;20011;-83
2023/05/19 03:20:43;;;;;;;8.63;4.00;;;11.00;97.30;;;;;;6136011;23;20013;-83
2023/05/19 03:23:09;;;;;;;9.00;4.68;;;11.00;97.30;;;;;;6136220;23;20005;-83
2023/05/19 03:25:35;;;;;;;8.63;4.50;;;11.00;97.40;;;;;;6160367;23;20006;-83
2023/05/19 03:28:00;;;;;;;8.20;4.55;;;11.00;97.50;;;;;;6160970;23;20040;-83
2023/05/19 03:30:26;;;;;;;9.63;5.32;;;11.00;97.60;;;;;;6186890;23;20071;-83
2023/05/19 03:32:52;;;;;;;10.13;5.35;;;10.90;97.60;;;;;;6135917;23;20335;-83
2023/05/19 03:35:17;;;;;;;7.15;4.47;;;10.90;97.60;;;;;;6135608;23;20001;-83
2023/05/19 03:37:43;;;;;;;10.82;4.70;;;10.90;97.60;;;;;;6135402;23;20092;-83
2023/05/19 03:40:09;;;;;;;9.15;4.95;;;10.90;97.70;;;;;;6136141;23;20013;-83
2023/05/19 03:42:35;;;;;;;9.80;5.18;;;10.90;97.70;;;;;;6160724;23;20001;-83
2023/05/19 03:45:01;;;;;;;9.07;4.55;;;10.90;97.80;;;;;;6160524;23;20502;-83
2023/05/19 03:47:27;;;;;;;9.38;5.38;;;10.90;97.90;;;;;;6111572;23;20028;-84
2023/05/19 03:49:52;;;;;;;8.07;5.18;;;10.80;98.10;;;;;;6160164;23;20407;-83
2023/05/19 03:52:18;;;;;;;9.43;5.45;;;10.80;98.20;;;;;;6186602;23;20013;-83
2023/05/19 03:54:44;;;;;;;9.10;5.15;;;10.70;98.30;;;;;;6160341;23;20080;-84
2023/05/19 03:57:10;;;;;;;9.45;5.13;;;10.70;98.40;;;;;;6160971;23;20049;-84
2023/05/19 03:59:36;;;;;;;9.63;5.22;;;10.80;98.40;;;;;;6160245;23;20001;-83
2023/05/19 04:02:02;;;;;;;8.45;4.97;;;10.80;98.40;;;;;;6136339;23;20005;-83
2023/05/19 04:04:28;;;;;;;10.63;5.35;;;10.80;98.40;;;;;;6187408;23;19997;-83
2023/05/19 04:06:53;;;;;;;9.68;4.72;;;10.80;98.40;;;;;;6161184;23;20005;-83
2023/05/19 04:09:19;;;;;;;9.98;5.13;;;10.80;98.40;;;;;;6136889;23;20179;-83
2023/05/19 04:11:45;;;;;;;10.90;5.85;;;10.80;98.40;;;;;;6201433;23;20005;-82
2023/05/19 04:14:11;;;;;;;8.70;5.22;;;10.80;98.60;;;;;;6187772;23;20008;-83
2023/05/19 04:16:37;;;;;;;8.75;4.97;;;10.80;98.70;;;;;;6187305;23;19999;-83
2023/05/19 04:19:02;;;;;;;12.13;6.00;;;10.70;98.70;;;;;;6187186;23;20009;-82
2023/05/19 04:21:28;;;;;;;8.68;5.13;;;10.70;98.90;;;;;;6169358;23;20001;-83
2023/05/19 04:23:54;;;;;;;10.13;4.72;;;10.60;99.00;;;;;;6160526;23;20097;-83
2023/05/19 04:26:21;;;;;;;10.27;5.70;;;10.70;99.00;;;;;;6159736;23;20035;-83
2023/05/19 04:28:47;;;;;;;9.48;5.70;;;10.60;99.00;;;;;;6160279;23;20088;-83
2023/05/19 04:31:13;;;;;;;6.75;4.72;;;10.60;99.20;;;;;;6186675;23;20005;-83
2023/05/19 04:33:40;;;;;;;9.52;4.82;;;10.60;99.20;;;;;;6159887;23;20332;-82
2023/05/19 04:36:10;;;;;;;9.50;5.82;;;10.70;99.20;;;;;;6160513;23;20008;-83
2023/05/19 04:38:38;;;;;;;8.63;5.60;;;10.70;99.20;;;;;;6184304;23;20056;-83
2023/05/19 04:41:08;;;;;;;8.45;5.15;;;10.70;99.20;;;;;;6160737;23;20128;-83
2023/05/19 04:43:34;;;;;;;10.38;5.47;;;10.70;99.30;;;;;;6186352;23;20005;-83
2023/05/19 04:46:00;;;;;;;8.10;5.28;;;10.70;99.30;;;;;;6186014;23;20374;-84
2023/05/19 04:48:29;;;;;;;9.27;5.38;;;10.70;99.40;;;;;;6135582;23;20442;-83
2023/05/19 04:50:55;;;;;;;8.10;5.03;;;10.70;99.40;;;;;;6135515;23;20449;-83
2023/05/19 04:53:20;;;;;;;8.98;5.60;;;10.70;99.50;;;;;;6135461;23;20117;-83
2023/05/19 04:55:46;;;;;;;9.68;5.85;;;10.70;99.60;;;;;;6159698;23;20031;-83
2023/05/19 04:58:12;;;;;;;12.82;5.72;;;10.70;99.60;;;;;;6159749;23;20012;-83
2023/05/19 05:00:37;;;;;;;10.13;5.43;;;10.70;99.70;;;;;;6159866;23;20015;-82
2023/05/19 05:03:04;;;;;;;9.65;5.57;;;10.70;99.70;;;;;;6134530;23;20009;-83
2023/05/19 05:05:30;;;;;;;10.15;5.53;;;10.80;99.70;;;;;;6159472;23;20005;-83
2023/05/19 05:07:57;;;;;;;10.05;5.60;;;10.80;99.60;;;;;;6159695;23;20044;-83
2023/05/19 05:10:23;;;;;;;11.35;6.10;;;10.80;99.50;;;;;;6159658;23;20005;-83
2023/05/19 05:12:51;;;;;;;10.02;5.22;;;10.80;99.60;;;;;;6185534;23;20012;-83
2023/05/19 05:15:17;;;;;;;8.43;5.43;;;10.80;99.60;;;;;;6135660;23;20005;-83
2023/05/19 05:17:43;;;;;;;10.75;5.88;;;10.80;99.70;;;;;;6135476;23;20009;-83
2023/05/19 05:20:11;;;;;;;9.77;6.00;;;10.90;99.80;;;;;;6185431;23;20503;-83
2023/05/19 05:22:40;;;;;;;9.43;5.55;;;10.90;99.90;;;;;;6184842;23;20005;-83
2023/05/19 05:25:07;;;;;;;8.18;5.32;;;10.90;99.80;;;;;;6159659;23;19997;-83
2023/05/19 05:27:32;;;;;;;12.15;5.95;;;10.90;99.80;;;;;;6135109;23;20005;-83
2023/05/19 05:29:58;;;;;;;12.32;6.05;;;11.00;99.80;;;;;;6185731;23;20008;-83
2023/05/19 05:32:24;;;;;;;8.52;5.47;;;11.00;99.80;;;;;;6159855;23;20020;-83
2023/05/19 05:34:50;;;;;;;9.57;5.45;;;11.00;99.80;;;;;;6159969;23;20088;-83
2023/05/19 05:37:15;;;;;;;9.10;5.50;;;11.10;99.80;;;;;;6159127;23;20080;-83
2023/05/19 05:39:41;;;;;;;9.50;5.18;;;11.10;99.70;;;;;;6160837;23;20005;-83
2023/05/19 05:42:10;;;;;;;10.30;6.00;;;11.20;99.60;;;;;;6162671;23;20016;-83
2023/05/19 05:44:42;;;;;;;9.00;5.65;;;11.20;99.60;;;;;;6152203;23;20037;-83
2023/05/19 05:47:08;;;;;;;11.73;5.53;;;11.30;99.60;;;;;;6184063;23;20008;-83
2023/05/19 05:49:36;;;;;;;7.82;5.57;;;11.30;99.60;;;;;;6163111;23;20035;-83
2023/05/19 05:52:04;;;;;;;7.93;4.90;;;11.30;99.60;;;;;;6212932;23;20005;-82
2023/05/19 05:54:30;;;;;;;9.10;5.30;;;11.40;99.60;;;;;;6194664;23;20009;-83
2023/05/19 05:56:56;;;;;;;11.43;5.72;;;11.30;99.50;;;;;;6186891;23;20301;-83
2023/05/19 05:59:21;;;;;;;11.35;5.40;;;11.40;99.50;;;;;;6160723;23;20087;-83
2023/05/19 06:01:47;;;;;;;8.75;4.90;;;11.40;99.50;;;;;;6161844;23;20363;-83
2023/05/19 06:04:13;;;;;;;9.82;6.10;;;11.50;99.40;;;;;;6136869;23;20535;-83
2023/05/19 06:06:38;;;;;;;11.38;6.10;;;11.50;99.30;;;;;;6161297;23;20446;-83
2023/05/19 06:09:04;;;;;;;9.13;5.28;;;11.50;99.20;;;;;;6136628;23;20005;-83
2023/05/19 06:11:30;;;;;;;10.38;5.13;;;11.50;99.10;;;;;;6161357;23;20020;-83
2023/05/19 06:13:56;;;;;;;8.63;5.80;;;11.50;99.00;;;;;;6187292;23;19997;-83
2023/05/19 06:16:21;;;;;;;7.97;5.28;;;11.60;99.00;;;;;;6161461;23;19997;-83
2023/05/19 06:18:47;;;;;;;7.88;4.72;;;11.60;99.00;;;;;;6187479;23;20005;-83
2023/05/19 06:21:13;;;;;;;7.95;4.90;;;11.70;99.00;;;;;;6161137;23;20027;-83
2023/05/19 06:23:39;;;;;;;8.70;4.82;;;11.80;99.00;;;;;;6161122;23;20035;-83
2023/05/19 06:26:05;;;;;;;9.15;4.97;;;11.90;98.90;;;;;;6160886;23;20079;-83
2023/05/19 06:28:32;;;;;;;7.53;5.03;;;12.00;98.90;;;;;;6136229;23;20032;-83
2023/05/19 06:30:58;;;;;;;7.55;4.63;;;12.00;98.80;;;;;;6160688;23;20021;-83
2023/05/19 06:33:24;;;;;;;7.90;4.80;;;12.10;98.70;;;;;;6187456;23;20009;-84
2023/05/19 06:35:50;;;;;;;7.15;4.93;;;12.20;98.60;;;;;;6160882;23;20001;-83
2023/05/19 06:38:16;;;;;;;6.75;4.85;;;12.20;98.70;;;;;;6160421;23;20021;-84
2023/05/19 06:40:41;;;;;;;9.98;5.40;;;12.30;98.40;;;;;;6136076;23;20037;-83
2023/05/19 06:43:07;;;;;;;9.48;4.47;;;12.30;98.40;;;;;;6136423;23;20047;-83
2023/05/19 06:45:33;;;;;;;8.05;4.53;;;12.30;98.30;;;;;;6161379;23;20005;-84
2023/05/19 06:47:59;;;;;;;9.07;4.70;;;12.40;98.30;;;;;;6160461;23;20009;-84
2023/05/19 06:50:25;;;;;;;7.78;4.40;;;12.50;98.30;;;;;;6161024;23;20438;-84
2023/05/19 06:52:50;;;;;;;7.97;4.70;;;12.50;98.20;;;;;;6136634;23;20009;-83
2023/05/19 06:55:16;;;;;;;5.47;3.97;;;12.60;98.20;;;;;;6160556;23;20435;-83
2023/05/19 06:57:42;;;;;;;8.38;4.90;;;12.60;98.10;;;;;;6136416;23;20013;-84
2023/05/19 07:00:11;;;;;;;8.38;4.03;;;12.80;98.00;;;;;;6136222;23;20100;-84
2023/05/19 07:02:37;;;;;;;6.95;3.85;;;12.80;97.90;;;;;;6160984;23;20365;-84
2023/05/19 07:05:03;;;;;;;5.57;3.72;;;12.90;97.70;;;;;;6161011;23;20005;-84
2023/05/19 07:07:29;;;;;;;7.95;4.10;;;13.00;97.60;;;;;;6161571;23;20032;-84
2023/05/19 07:09:55;;;;;;;6.97;4.03;;;13.00;97.30;;;;;;6160966;23;20420;-83
2023/05/19 07:12:20;;;;;;;8.27;4.30;;;13.10;97.30;;;;;;6136487;23;20450;-84
2023/05/19 07:14:46;;;;;;;6.93;4.38;;;13.10;97.20;;;;;;6136421;23;20008;-84
2023/05/19 07:17:12;;;;;;;8.18;4.60;;;13.20;97.00;;;;;;6161483;23;20064;-84
2023/05/19 07:19:38;;;;;;;7.30;4.78;;;13.20;96.80;;;;;;6144386;23;20009;-83
2023/05/19 07:22:03;;;;;;;7.85;4.35;;;13.20;96.70;;;;;;6163776;23;20024;-82
2023/05/19 07:24:30;;;;;;;6.50;4.13;;;13.30;96.60;;;;;;6188672;23;20005;-84
2023/05/19 07:26:56;;;;;;;6.93;3.83;;;13.30;96.60;;;;;;6189347;23;19993;-83
2023/05/19 07:29:21;;;;;;;8.20;4.78;;;13.40;96.50;;;;;;6209963;23;20043;-84
2023/05/19 07:31:47;;;;;;;5.85;3.65;;;13.40;96.30;;;;;;6162314;23;20017;-84
2023/05/19 07:34:13;;;;;;;11.27;5.10;;;13.50;96.40;;;;;;6161291;23;20005;-84
2023/05/19 07:36:38;;;;;;;6.95;3.60;;;13.60;96.30;;;;;;6136561;23;20005;-84
2023/05/19 07:39:04;;;;;;;6.65;3.97;;;13.60;96.40;;;;;;6160411;23;20468;-84
2023/05/19 07:41:32;;;;;;;4.95;3.75;;;13.70;96.40;;;;;;6186567;23;20085;-84
2023/05/19 07:43:58;;;;;;;5.63;3.50;;;13.80;96.40;;;;;;6160547;23;20009;-84
2023/05/19 07:46:23;;;;;;;7.70;3.50;;;13.90;96.20;;;;;;6135892;23;20502;-84
2023/05/19 07:48:49;;;;;;;9.05;4.13;;;14.00;96.10;;;;;;6160230;23;20124;-83
2023/05/19 07:51:15;;;;;;;6.40;3.50;;;14.10;95.60;;;;;;6160190;23;20009;-84
2023/05/19 07:53:40;;;;;;;7.45;3.83;;;14.10;95.50;;;;;;6160430;23;20009;-84
2023/05/19 07:56:06;;;;;;;10.23;4.03;;;14.20;95.50;;;;;;6159957;23;20005;-84
2023/05/19 07:58:34;;;;;;;6.40;3.55;;;14.30;95.50;;;;;;6186345;23;20005;-84
2023/05/19 08:01:00;;;;;;;8.40;3.20;;;14.40;95.40;;;;;;6135271;23;20016;-84
2023/05/19 08:03:26;;;;;;;6.95;2.92;;;14.60;95.40;;;;;;6160253;23;20036;-84
2023/05/19 08:05:55;;;;;;;5.35;3.35;;;14.70;95.40;;;;;;6135515;23;20494;-84
2023/05/19 08:08:21;;;;;;;14.55;3.42;;;14.70;94.90;;;;;;6136110;23;20513;-84
2023/05/19 08:10:46;;;;;;;6.50;3.47;;;14.80;94.90;;;;;;6160276;23;20036;-84
2023/05/19 08:13:12;;;;;;;7.68;3.42;;;14.90;94.90;;;;;;6159667;23;20423;-84
2023/05/19 08:15:38;;;;;;;7.20;3.72;;;14.90;94.80;;;;;;6160159;23;20487;-84
2023/05/19 08:18:04;;;;;;;3.92;2.45;;;15.00;94.80;;;;;;6135636;23;20012;-85
2023/05/19 08:20:30;;;;;;;9.13;3.22;;;15.20;94.80;;;;;;6159880;23;20008;-85
2023/05/19 08:22:55;;;;;;;7.40;3.28;;;15.20;94.40;;;;;;6185814;23;20424;-84
2023/05/19 08:25:21;;;;;;;6.85;3.38;;;15.30;94.10;;;;;;6135412;23;20001;-84
2023/05/19 08:27:47;;;;;;;5.13;2.70;;;15.30;94.00;;;;;;6135699;23;20083;-85
2023/05/19 08:30:13;;;;;;;5.40;2.75;;;15.40;94.10;;;;;;6159496;23;20012;-85
2023/05/19 08:32:38;;;;;;;7.53;3.47;;;15.50;94.00;;;;;;6135505;23;20013;-84
2023/05/19 08:35:04;;;;;;;8.57;3.78;;;15.50;94.00;;;;;;6135613;23;20088;-85
2023/05/19 08:37:30;;;;;;;5.65;3.20;;;15.60;93.20;;;;;;6185954;23;20028;-86
2023/05/19 08:39:56;;;;;;;6.88;2.83;;;15.60;92.80;;;;;;6186711;23;20021;-85
2023/05/19 08:42:21;;;;;;;7.28;3.10;;;15.70;92.90;;;;;;6160039;23;20321;-85
2023/05/19 08:44:47;;;;;;;5.47;2.90;;;15.70;92.90;;;;;;6160187;23;20001;-84
2023/05/19 08:47:14;;;;;;;6.65;3.10;;;15.80;92.70;;;;;;6135310;23;20024;-85
2023/05/19 08:49:51;;;;;;;8.50;3.30;;;15.90;92.40;;;;;;6135815;23;20428;-84
2023/05/19 08:52:44;;;;;;;5.47;2.53;;;15.90;92.30;;;;;;6160286;23;20012;-84
2023/05/19 08:55:20;;;;;;;7.53;2.80;;;15.90;92.10;;;;;;6184943;23;20006;-85
2023/05/19 08:57:48;;;;;;;5.43;2.38;;;16.00;91.90;;;;;;6186741;23;20004;-84
2023/05/19 09:00:16;;;;;;;5.95;2.63;;;16.00;92.10;;;;;;6152447;23;20036;-84
2023/05/19 09:02:42;;;;;;;8.32;2.35;;;16.20;92.10;;;;;;6186772;23;20048;-84
2023/05/19 09:05:08;;;;;;;5.00;2.20;;;16.30;92.10;;;;;;6213523;23;20005;-85
2023/05/19 09:07:37;;;;;;;6.60;2.40;;;16.30;92.00;;;;;;6213700;23;19989;-84
2023/05/19 09:10:03;;;;;;;4.70;2.03;;;16.40;91.60;;;;;;6163208;23;20005;-84
2023/05/19 09:12:28;;;;;;;7.60;2.00;;;16.50;91.50;;;;;;6146520;23;20011;-85
2023/05/19 09:14:55;;;;;;;6.35;2.33;;;16.60;91.20;;;;;;6135514;23;20088;-85
2023/05/19 09:17:21;;;;;;;4.95;1.80;;;16.60;90.50;;;;;;6160426;23;20016;-85
2023/05/19 09:19:48;;;;;;;8.43;2.45;;;16.70;90.00;;;;;;6159853;23;20092;-85
2023/05/19 09:22:15;;;;;;;5.30;2.10;;;16.70;88.40;;;;;;6135434;23;20012;-85
2023/05/19 09:24:41;;;;;;;4.75;1.75;;;16.70;89.00;;;;;;6186290;23;20063;-84
2023/05/19 09:27:07;;;;;;;5.20;2.00;;;16.80;88.30;;;;;;6159793;23;20064;-86
2023/05/19 09:29:33;;;;;;;4.07;1.92;;;16.80;87.50;;;;;;6159599;23;20009;-86
2023/05/19 09:32:03;;;;;;;6.07;2.15;;;16.80;86.40;;;;;;6135348;23;20081;-84
2023/05/19 09:34:29;;;;;;;5.93;2.10;;;16.80;86.10;;;;;;6187812;23;20055;-83
2023/05/19 09:36:56;;;;;;;6.03;2.22;;;16.90;85.40;;;;;;6161875;23;20092;-83
2023/05/19 09:39:24;;;;;;;5.82;2.42;;;16.90;85.60;;;;;;6161896;23;20445;-83
2023/05/19 09:41:54;;;;;;;7.20;1.98;;;17.00;84.30;;;;;;6137106;23;20300;-83
2023/05/19 09:44:19;;;;;;;5.32;1.60;;;17.00;84.30;;;;;;6161154;23;20008;-83
2023/05/19 09:46:52;;;;;;;8.25;1.98;;;17.00;84.60;;;;;;6161086;23;20005;-83
2023/05/19 09:49:29;;;;;;;6.97;2.03;;;17.00;83.60;;;;;;6161295;23;20009;-83
2023/05/19 09:52:01;;;;;;;5.25;1.58;;;17.00;83.00;;;;;;6161382;23;20009;-83
2023/05/19 09:54:28;;;;;;;6.43;1.98;;;17.00;84.00;;;;;;6161463;23;20088;-84
2023/05/19 09:57:05;;;;;;;3.38;1.67;;;17.10;83.60;;;;;;6137798;23;20005;-84
2023/05/19 09:59:31;;;;;;;4.97;1.65;;;17.20;82.50;;;;;;6161413;23;20009;-83
2023/05/19 10:01:58;;;;;;;3.70;2.00;;;17.20;81.60;;;;;;6161168;23;20039;-83
2023/05/19 10:04:26;;;;;;;4.70;1.80;;;17.20;82.10;;;;;;6186101;23;20316;-84
2023/05/19 10:06:53;;;;;;;2.83;1.42;;;17.30;81.40;;;;;;6136673;23;20005;-84
2023/05/19 10:09:25;;;;;;;7.25;2.03;;;17.30;81.40;;;;;;6161295;23;20016;-83
2023/05/19 10:11:56;;;;;;;3.33;1.67;;;17.30;80.60;;;;;;6137357;23;20009;-83
2023/05/19 10:14:24;;;;;;;4.78;2.00;;;17.40;81.60;;;;;;6187475;23;20411;-83
2023/05/19 10:16:51;;;;;;;5.18;1.58;;;17.40;80.80;;;;;;6136653;23;20015;-83
2023/05/19 10:19:20;;;;;;;5.43;2.00;;;17.50;81.50;;;;;;6186339;23;20004;-83
2023/05/19 10:21:46;;;;;;;5.32;1.85;;;17.60;81.40;;;;;;6186412;23;20009;-83
2023/05/19 10:24:12;;;;;;;3.45;1.88;;;17.60;81.00;;;;;;6137406;23;20027;-84
2023/05/19 10:26:42;;;;;;;5.22;1.90;;;17.60;81.50;;;;;;6136708;23;20010;-83
2023/05/19 10:29:10;;;;;;;6.93;2.10;;;17.60;79.70;;;;;;6161131;23;20001;-83
2023/05/19 10:31:39;;;;;;;3.50;1.60;;;17.60;80.60;;;;;;6187357;23;20009;-83
2023/05/19 10:34:23;;;;;;;4.75;2.00;;;17.70;81.10;;;;;;6161138;23;20051;-83
2023/05/19 10:37:15;;;;;;;7.03;2.00;;;17.80;81.00;;;;;;6161127;23;20490;-84
2023/05/19 10:39:43;;;;;;;5.30;2.20;;;17.80;80.60;;;;;;6148816;23;20458;-84
2023/05/19 10:42:18;;;;;;;4.13;1.88;;;17.70;80.70;;;;;;6161852;23;20322;-83
2023/05/19 10:45:17;;;;;;;6.85;2.30;;;17.80;80.80;;;;;;6188383;23;20008;-84
2023/05/19 10:47:43;;;;;;;6.63;2.58;;;17.80;79.30;;;;;;6188266;23;20008;-83
2023/05/19 10:50:09;;;;;;;6.93;2.40;;;17.70;79.10;;;;;;6188956;23;20013;-84
2023/05/19 10:52:43;;;;;;;7.50;2.35;;;17.70;78.60;;;;;;6164057;23;20001;-83
2023/05/19 10:55:16;;;;;;;6.35;2.25;;;17.70;79.00;;;;;;6188972;23;19997;-82
2023/05/19 10:58:08;;;;;;;5.22;1.95;;;17.70;78.90;;;;;;6196625;23;20025;-83
2023/05/19 11:00:33;;;;;;;7.32;2.13;;;17.80;78.20;;;;;;6155674;23;20009;-84
2023/05/19 11:03:17;;;;;;;5.63;2.33;;;17.80;78.20;;;;;;6136561;23;20008;-83
2023/05/19 11:05:45;;;;;;;4.72;2.45;;;17.80;77.80;;;;;;6187282;23;20001;-85
2023/05/19 11:08:23;;;;;;;5.22;2.15;;;17.80;78.00;;;;;;6137046;23;20364;-85
2023/05/19 11:10:51;;;;;;;5.82;2.13;;;17.90;77.80;;;;;;6175358;23;20012;-87
2023/05/19 11:13:26;;;;;;;5.45;1.77;;;17.90;77.40;;;;;;6160925;23;20138;-86
2023/05/19 11:15:52;;;;;;;6.70;2.20;;;18.00;77.00;;;;;;6160600;23;20024;-85
2023/05/19 11:18:19;;;;;;;5.18;2.40;;;18.00;76.50;;;;;;6160683;23;20001;-86
2023/05/19 11:20:57;;;;;;;4.95;2.05;;;18.00;76.00;;;;;;6160186;23;20112;-85
2023/05/19 11:23:25;;;;;;;4.97;1.73;;;18.10;75.10;;;;;;6186449;23;20068;-85
2023/05/19 11:25:53;;;;;;;5.22;2.08;;;18.10;75.90;;;;;;6158382;23;20037;-85
2023/05/19 11:28:24;;;;;;;5.75;2.25;;;18.20;75.80;;;;;;6135803;23;20036;-85
2023/05/19 11:30:54;;;;;;;6.07;2.00;;;18.20;75.40;;;;;;6161115;23;20473;-85
2023/05/19 11:33:20;;;;;;;5.05;1.92;;;18.30;75.80;;;;;;6185316;23;20005;-86
2023/05/19 11:35:50;;;;;;;5.72;1.67;;;18.30;76.30;;;;;;6135401;23;20005;-84
2023/05/19 11:38:19;;;;;;;4.90;2.10;;;18.40;76.90;;;;;;6136136;23;20017;-86
2023/05/19 11:40:57;;;;;;;5.57;2.05;;;18.40;76.20;;;;;;6160504;23;20352;-86
2023/05/19 11:43:24;;;;;;;5.40;1.90;;;18.50;76.30;;;;;;6164418;23;20029;-85
2023/05/19 11:45:50;;;;;;;5.40;2.00;;;18.60;76.30;;;;;;6188122;23;20001;-91
2023/05/19 11:48:19;;;;;;;4.18;1.70;;;18.50;76.10;;;;;;6161673;23;20001;-94
2023/05/19 11:50:45;;;;;;;3.50;1.95;;;18.60;76.50;;;;;;6162705;23;20087;-88
2023/05/19 11:53:28;;;;;;;;;;;;;;;;;;;;;
2023/05/19 11:55:54;;;;;;;5.35;2.00;;;18.60;74.20;;;;;;6187170;23;20527;-90
2023/05/19 11:58:26;;;;;;;4.63;2.10;;;18.50;74.10;;;;;;6160964;23;20025;-91
2023/05/19 12:00:52;;;;;;;4.25;1.83;;;18.50;74.30;;;;;;6161811;23;20047;-91
2023/05/19 12:03:21;;;;;;;6.32;2.22;;;18.60;74.10;;;;;;6161799;23;20005;-91
2023/05/19 12:05:50;;;;;;;4.53;1.90;;;18.60;73.80;;;;;;6161258;23;20043;-89
2023/05/19 12:08:17;;;;;;;3.63;1.77;;;18.70;73.30;;;;;;6161726;23;20048;-89
2023/05/19 12:10:50;;;;;;;2.92;1.63;;;18.70;73.40;;;;;;6161560;23;20005;-89
2023/05/19 12:13:16;;;;;;;4.05;1.73;;;18.70;73.50;;;;;;6187718;23;20005;-91
2023/05/19 12:15:42;;;;;;;4.28;1.77;;;18.80;73.40;;;;;;6161676;23;20075;-92
2023/05/19 12:18:08;;;;;;;3.05;1.52;;;18.80;73.80;;;;;;6188056;23;20503;-90
2023/05/19 12:20:34;;;;;;;2.75;1.58;;;19.00;74.40;;;;;;6137624;23;20009;-89
2023/05/19 12:23:02;;;;;;;4.47;1.90;;;19.00;74.00;;;;;;6187711;23;20305;-90
2023/05/19 12:25:31;;;;;;;6.03;1.75;;;19.10;73.80;;;;;;6137648;23;20001;-89
2023/05/19 12:27:58;;;;;;;4.00;1.70;;;19.10;74.20;;;;;;6137158;23;20482;-90
2023/05/19 12:30:29;;;;;;;6.72;1.70;;;19.20;74.20;;;;;;6187420;23;20048;-89
2023/05/19 12:32:56;;;;;;;3.75;1.92;;;19.30;73.00;;;;;;6189356;23;20009;-90
2023/05/19 12:35:25;;;;;;;6.03;2.05;;;19.30;72.80;;;;;;6183767;23;20041;-89
2023/05/19 12:37:54;;;;;;;4.10;1.70;;;19.30;72.30;;;;;;6186705;23;19981;-88
2023/05/19 12:40:20;;;;;;;4.43;1.95;;;19.30;72.40;;;;;;6187825;23;19993;-89
2023/05/19 12:42:47;;;;;;;7.47;2.20;;;19.40;71.70;;;;;;6186292;23;20450;-91
2023/05/19 12:45:13;;;;;;;3.92;1.90;;;19.40;70.50;;;;;;6208169;23;20423;-91
2023/05/19 12:47:40;;;;;;;4.75;2.08;;;19.40;70.50;;;;;;6189243;23;20136;-91
2023/05/19 12:50:08;;;;;;;4.85;1.75;;;19.40;70.80;;;;;;6161871;23;20001;-90
2023/05/19 12:52:44;;;;;;;5.20;1.80;;;19.40;70.80;;;;;;6161721;23;20012;-92